createdAt,value
2022-08-29T00:04:43.356Z,1011.428
2022-08-29T00:09:45.807Z,1011.468
2022-08-29T00:14:48.368Z,1011.458
2022-08-29T00:19:50.911Z,1011.452
2022-08-29T00:24:53.340Z,1011.411
2022-08-29T00:29:55.940Z,1011.46
2022-08-29T00:34:58.598Z,1011.433
2022-08-29T00:40:01.380Z,1011.406
2022-08-29T00:45:03.875Z,1011.444
2022-08-29T00:50:06.477Z,1011.425
2022-08-29T00:55:09.107Z,1011.388
2022-08-29T01:00:11.713Z,1011.358
2022-08-29T01:05:14.454Z,1011.405
2022-08-29T01:10:17.136Z,1011.388
2022-08-29T01:15:19.909Z,1011.494
2022-08-29T01:20:22.509Z,1011.563
2022-08-29T01:25:25.217Z,1011.568
2022-08-29T01:30:27.821Z,1011.667
2022-08-29T01:35:30.378Z,1011.724
2022-08-29T01:40:33.157Z,1011.713
2022-08-29T01:45:35.528Z,1011.761
2022-08-29T01:50:38.157Z,1011.736
2022-08-29T01:55:40.860Z,1011.791
2022-08-29T02:00:43.803Z,1011.809
2022-08-29T02:05:46.156Z,1011.815
2022-08-29T02:10:48.902Z,1011.825
2022-08-29T02:15:51.569Z,1011.76
2022-08-29T02:20:54.356Z,1011.701
2022-08-29T02:25:57.138Z,1011.713
2022-08-29T02:30:59.757Z,1011.687
2022-08-29T02:36:02.405Z,1011.746
2022-08-29T02:41:05.056Z,1011.694
2022-08-29T02:46:07.910Z,1011.727
2022-08-29T02:51:10.588Z,1011.804
2022-08-29T02:56:14.385Z,1011.804
2022-08-29T03:01:16.183Z,1011.732
2022-08-29T03:06:18.706Z,1011.657
2022-08-29T03:11:21.231Z,1011.766
2022-08-29T03:16:23.957Z,1011.743
2022-08-29T03:21:26.515Z,1011.676
2022-08-29T03:26:29.170Z,1011.684
2022-08-29T03:31:31.941Z,1011.724
2022-08-29T03:36:34.925Z,1011.638
2022-08-29T03:41:37.685Z,1011.64
2022-08-29T03:46:40.470Z,1011.61
2022-08-29T03:51:43.245Z,1011.635
2022-08-29T03:56:45.887Z,1011.651
2022-08-29T04:01:48.536Z,1011.625
2022-08-29T04:06:50.811Z,1011.663
2022-08-29T04:11:53.496Z,1011.663
2022-08-29T04:16:56.151Z,1011.67
2022-08-29T04:21:58.848Z,1011.718
2022-08-29T04:27:01.423Z,1011.734
2022-08-29T04:32:04.035Z,1011.734
2022-08-29T04:37:06.665Z,1011.752
2022-08-29T04:42:09.344Z,1011.851
2022-08-29T04:47:12.168Z,1011.902
2022-08-29T04:52:14.857Z,1011.865
2022-08-29T04:57:17.578Z,1011.827
2022-08-29T05:02:20.287Z,1011.855
2022-08-29T05:07:23.029Z,1011.727
2022-08-29T05:12:25.873Z,1011.9
2022-08-29T05:17:28.760Z,1011.981
2022-08-29T05:22:31.408Z,1012.026
2022-08-29T05:27:34.064Z,1012.043
2022-08-29T05:32:36.543Z,1012.073
2022-08-29T05:37:39.323Z,1012.105
2022-08-29T05:42:42.003Z,1012.05
2022-08-29T05:47:44.704Z,1012.009
2022-08-29T05:52:47.310Z,1012.047
2022-08-29T05:57:49.932Z,1012.069
2022-08-29T06:02:52.621Z,1012.1
2022-08-29T06:07:54.909Z,1012.133
2022-08-29T06:12:57.607Z,1012.119
2022-08-29T06:18:00.288Z,1012.154
2022-08-29T06:23:03.328Z,1012.208
2022-08-29T06:28:05.935Z,1012.263
2022-08-29T06:33:08.650Z,1012.36
2022-08-29T06:38:13.962Z,1012.445
2022-08-29T06:43:13.900Z,1012.394
2022-08-29T06:48:16.375Z,1012.42
2022-08-29T06:58:21.801Z,1012.453
2022-08-29T07:03:24.723Z,1012.491
2022-08-29T07:08:27.524Z,1012.536
2022-08-29T07:18:32.549Z,1012.659
2022-08-29T07:28:38.018Z,1012.75
2022-08-29T07:33:40.700Z,1012.676
2022-08-29T07:38:43.477Z,1012.733
2022-08-29T07:43:45.911Z,1012.716
2022-08-29T07:48:51.339Z,1012.808
2022-08-29T07:53:57.508Z,1012.916
2022-08-29T07:59:00.316Z,1013.009
2022-08-29T08:04:02.950Z,1012.994
2022-08-29T08:19:11.397Z,1012.97
2022-08-29T08:24:18.834Z,1012.946
2022-08-29T08:34:37.002Z,1013.13
2022-08-29T08:39:39.628Z,1013.138
2022-08-29T08:44:42.453Z,1013.223
2022-08-29T08:50:03.370Z,1013.152
2022-08-29T08:55:06.055Z,1013.066
2022-08-29T09:00:08.861Z,1013.033
2022-08-29T09:05:11.315Z,1013.036
2022-08-29T09:10:13.945Z,1013.103
2022-08-29T09:15:19.528Z,1013.159
2022-08-29T09:25:27.996Z,1013.196
2022-08-29T09:30:27.594Z,1013.238
2022-08-29T09:35:30.197Z,1013.212
2022-08-29T09:40:32.880Z,1013.218
2022-08-29T09:45:35.673Z,1013.277
2022-08-29T09:50:38.403Z,1013.297
2022-08-29T09:55:45.126Z,1013.262
2022-08-29T10:00:46.692Z,1013.229
2022-08-29T10:10:52.146Z,1013.323
2022-08-29T10:15:55.345Z,1013.309
2022-08-29T10:26:00.965Z,1013.28
2022-08-29T10:31:03.617Z,1013.352
2022-08-29T10:36:06.367Z,1013.337
2022-08-29T10:41:09.124Z,1013.396
2022-08-29T10:46:11.838Z,1013.417
2022-08-29T10:51:14.321Z,1013.422
2022-08-29T10:56:17.016Z,1013.451
2022-08-29T11:01:19.709Z,1013.448
2022-08-29T11:06:22.538Z,1013.413
2022-08-29T11:11:25.011Z,1013.304
2022-08-29T11:16:27.598Z,1013.336
2022-08-29T11:21:30.334Z,1013.285
2022-08-29T11:26:33.136Z,1013.292
2022-08-29T11:36:38.719Z,1013.258
2022-08-29T11:41:41.402Z,1013.292
2022-08-29T11:51:47.920Z,1013.313
2022-08-29T12:01:56.214Z,1013.295
2022-08-29T12:06:59.998Z,1013.257
2022-08-29T12:12:07.282Z,1013.364
2022-08-29T12:17:10.055Z,1013.261
2022-08-29T12:22:14.109Z,1013.179
2022-08-29T12:27:15.817Z,1013.244
2022-08-29T12:32:22.490Z,1013.172
2022-08-29T12:37:21.257Z,1013.16
2022-08-29T12:42:24.103Z,1013.102
2022-08-29T12:47:26.685Z,1013.104
2022-08-29T12:52:29.597Z,1013.07
2022-08-29T12:57:32.814Z,1012.996
2022-08-29T13:02:35.485Z,1013.055
2022-08-29T13:07:38.116Z,1013.045
2022-08-29T13:12:40.686Z,1013.044
2022-08-29T13:17:43.302Z,1012.983
2022-08-29T13:22:45.908Z,1012.939
2022-08-29T13:27:48.576Z,1012.883
2022-08-29T13:32:51.430Z,1012.893
2022-08-29T13:37:54.097Z,1012.838
2022-08-29T13:42:57.010Z,1012.763
2022-08-29T13:47:59.857Z,1012.737
2022-08-29T13:53:02.425Z,1012.699
2022-08-29T13:58:05.167Z,1012.688
2022-08-29T14:03:07.926Z,1012.632
2022-08-29T14:08:10.578Z,1012.625
2022-08-29T14:13:13.089Z,1012.619
2022-08-29T14:18:15.633Z,1012.52
2022-08-29T14:23:22.689Z,1012.634
2022-08-29T14:28:20.881Z,1012.578
2022-08-29T14:33:23.595Z,1012.515
2022-08-29T14:38:26.160Z,1012.685
2022-08-29T14:43:28.772Z,1012.634
2022-08-29T14:48:31.279Z,1012.579
2022-08-29T14:53:37.878Z,1012.539
2022-08-29T14:58:36.989Z,1012.532
2022-08-29T15:03:39.451Z,1012.522
2022-08-29T15:08:42.223Z,1012.497
2022-08-29T15:13:44.947Z,1012.437
2022-08-29T15:23:50.262Z,1012.464
2022-08-29T15:28:52.833Z,1012.343
2022-08-29T15:33:55.553Z,1012.374
2022-08-29T15:38:58.543Z,1012.392
2022-08-29T15:44:01.205Z,1012.461
2022-08-29T15:49:03.592Z,1012.38
2022-08-29T15:54:06.223Z,1012.345
2022-08-29T15:59:09.013Z,1012.33
2022-08-29T16:04:11.421Z,1012.316
2022-08-29T16:09:15.430Z,1012.28
2022-08-29T16:14:47.062Z,1012.316
2022-08-29T16:24:22.097Z,1012.311
2022-08-29T16:34:27.709Z,1012.36
2022-08-29T16:39:30.196Z,1012.363
2022-08-29T16:44:32.681Z,1012.305
2022-08-29T16:49:38.033Z,1012.346
2022-08-29T16:54:40.765Z,1012.401
2022-08-29T16:59:43.688Z,1012.416
2022-08-29T17:04:46.141Z,1012.359
2022-08-29T17:09:49.019Z,1012.326
2022-08-29T17:14:54.875Z,1012.323
2022-08-29T17:24:57.068Z,1012.347
2022-08-29T17:29:59.634Z,1012.357
2022-08-29T17:35:02.148Z,1012.34
2022-08-29T17:40:04.714Z,1012.405
2022-08-29T17:45:07.281Z,1012.381
2022-08-29T17:55:12.625Z,1012.253
2022-08-29T18:00:15.389Z,1012.327
2022-08-29T18:05:18.138Z,1012.38
2022-08-29T18:10:20.592Z,1012.432
2022-08-29T18:15:23.622Z,1012.46
2022-08-29T18:25:28.523Z,1012.533
2022-08-29T18:30:31.241Z,1012.54
2022-08-29T18:35:33.663Z,1012.598
2022-08-29T18:40:39.523Z,1012.721
2022-08-29T18:45:39.437Z,1012.778
2022-08-29T18:50:41.854Z,1012.824
2022-08-29T19:05:49.832Z,1012.935
2022-08-29T19:10:53.879Z,1012.961
2022-08-29T19:15:55.113Z,1013.027
2022-08-29T19:20:57.736Z,1013.105
2022-08-29T19:26:00.334Z,1013.14
2022-08-29T19:31:03.166Z,1013.181
2022-08-29T19:36:05.855Z,1013.183
2022-08-29T19:41:08.501Z,1013.214
2022-08-29T19:46:11.279Z,1013.209
2022-08-29T19:51:14.315Z,1013.237
2022-08-29T19:56:16.911Z,1013.284
2022-08-29T20:01:19.516Z,1013.361
2022-08-29T20:06:22.041Z,1013.449
2022-08-29T20:11:24.777Z,1013.492
2022-08-29T20:16:27.628Z,1013.483
2022-08-29T20:21:30.360Z,1013.521
2022-08-29T20:26:33.080Z,1013.504
2022-08-29T20:31:35.822Z,1013.547
2022-08-29T20:36:38.712Z,1013.604
2022-08-29T20:46:43.775Z,1013.696
2022-08-29T20:51:46.379Z,1013.755
2022-08-29T20:56:49.043Z,1013.805
2022-08-29T21:01:51.967Z,1013.789
2022-08-29T21:06:54.503Z,1013.845
2022-08-29T21:11:57.139Z,1013.824
2022-08-29T21:16:59.810Z,1013.793
2022-08-29T21:22:02.899Z,1013.77
2022-08-29T21:27:05.539Z,1013.834
2022-08-29T21:32:08.112Z,1013.82
2022-08-29T21:42:13.548Z,1013.825
2022-08-29T21:47:17.926Z,1013.841
2022-08-29T21:52:18.817Z,1013.816
2022-08-29T21:57:21.178Z,1013.804
2022-08-29T22:02:23.647Z,1013.897
2022-08-29T22:07:26.257Z,1013.973
2022-08-29T22:12:28.881Z,1013.94
2022-08-29T22:17:31.565Z,1014.011
2022-08-29T22:22:34.094Z,1013.967
2022-08-29T22:27:36.916Z,1014.017
2022-08-29T22:32:39.578Z,1013.994
2022-08-29T22:37:42.250Z,1014.003
2022-08-29T22:42:45.151Z,1013.999
2022-08-29T22:47:47.755Z,1013.968
2022-08-29T22:52:50.345Z,1013.928
2022-08-29T22:57:52.944Z,1014.008
2022-08-29T23:07:58.133Z,1014.061
2022-08-29T23:13:00.612Z,1014.109
2022-08-29T23:18:03.243Z,1014.123
2022-08-29T23:23:08.869Z,1014.07
2022-08-29T23:28:11.333Z,1013.974
2022-08-29T23:33:14.024Z,1013.95
2022-08-29T23:38:16.784Z,1013.983
2022-08-29T23:43:19.456Z,1013.906
2022-08-29T23:48:22.172Z,1013.904
2022-08-29T23:58:27.459Z,1013.893
